createdAt,value
2018-11-13T00:00:21.018Z,92.79
2018-11-13T00:05:24.037Z,92.41
2018-11-13T00:10:26.576Z,92.67
2018-11-13T00:15:29.223Z,93.37
2018-11-13T00:20:31.708Z,93.29
2018-11-13T00:25:34.271Z,93.62
2018-11-13T00:30:37.264Z,93.89
2018-11-13T00:35:39.822Z,94.10
2018-11-13T00:40:42.327Z,93.36
2018-11-13T00:45:45.108Z,94.04
2018-11-13T00:50:47.337Z,93.56
2018-11-13T00:55:50.029Z,93.63
2018-11-13T01:00:52.833Z,93.26
2018-11-13T01:05:55.303Z,93.51
2018-11-13T01:10:57.868Z,92.99
2018-11-13T01:16:00.350Z,93.17
2018-11-13T01:21:02.908Z,93.33
2018-11-13T01:26:05.479Z,93.36
2018-11-13T01:31:08.238Z,93.44
2018-11-13T01:36:10.676Z,93.23
2018-11-13T01:41:13.228Z,92.83
2018-11-13T01:46:15.799Z,93.05
2018-11-13T01:51:18.364Z,92.75
2018-11-13T01:56:20.841Z,92.83
2018-11-13T02:01:23.312Z,93.55
2018-11-13T02:06:25.937Z,93.18
2018-11-13T02:11:28.436Z,93.42
2018-11-13T02:16:30.928Z,92.65
2018-11-13T02:21:33.463Z,92.88
2018-11-13T02:26:35.940Z,93.36
2018-11-13T02:31:38.527Z,93.51
2018-11-13T02:36:41.083Z,93.46
2018-11-13T02:41:43.587Z,93.56
2018-11-13T02:46:46.615Z,93.25
2018-11-13T02:51:49.193Z,93.47
2018-11-13T02:56:51.706Z,93.37
2018-11-13T03:01:54.141Z,92.83
2018-11-13T03:06:56.638Z,93.19
2018-11-13T03:11:59.118Z,92.48
2018-11-13T03:17:01.689Z,92.59
2018-11-13T03:22:04.664Z,92.19
2018-11-13T03:27:07.187Z,92.37
2018-11-13T03:32:09.641Z,92.25
2018-11-13T03:37:12.171Z,92.19
2018-11-13T03:42:17.274Z,90.53
2018-11-13T03:47:20.017Z,91.29
2018-11-13T03:52:22.456Z,91.10
2018-11-13T03:57:25.008Z,90.69
2018-11-13T04:02:27.461Z,90.33
2018-11-13T04:07:29.951Z,90.34
2018-11-13T04:12:32.463Z,90.28
2018-11-13T04:17:34.911Z,90.01
2018-11-13T04:22:38.695Z,90.13
2018-11-13T04:27:41.304Z,90.65
2018-11-13T04:32:44.812Z,90.86
2018-11-13T04:37:47.344Z,90.72
2018-11-13T04:42:51.211Z,91.22
2018-11-13T04:47:53.780Z,90.92
2018-11-13T04:52:57.345Z,91.07
2018-11-13T04:57:59.913Z,90.98
2018-11-13T05:03:02.644Z,90.94
2018-11-13T05:08:06.343Z,91.04
2018-11-13T05:13:08.908Z,91.00
2018-11-13T05:18:11.433Z,91.06
2018-11-13T05:23:14.194Z,91.13
2018-11-13T05:28:16.627Z,91.35
2018-11-13T05:33:19.045Z,91.50
2018-11-13T05:38:21.835Z,91.99
2018-11-13T05:43:24.361Z,91.87
2018-11-13T05:48:26.985Z,91.49
2018-11-13T05:53:29.849Z,91.38
2018-11-13T05:58:32.426Z,91.76
2018-11-13T06:03:34.970Z,92.17
2018-11-13T06:08:37.570Z,91.76
2018-11-13T06:13:40.205Z,92.10
2018-11-13T06:18:42.978Z,91.78
2018-11-13T06:23:45.544Z,91.86
2018-11-13T06:28:48.235Z,91.74
2018-11-13T06:33:51.016Z,91.76
2018-11-13T06:38:53.739Z,91.85
2018-11-13T06:43:56.240Z,91.89
2018-11-13T06:48:58.875Z,91.68
2018-11-13T06:54:13.495Z,91.37
2018-11-13T06:59:15.992Z,90.79
2018-11-13T07:04:18.719Z,91.15
2018-11-13T07:09:21.464Z,91.15
2018-11-13T07:14:24.097Z,91.22
2018-11-13T07:19:26.707Z,91.46
2018-11-13T07:24:32.832Z,91.45
2018-11-13T07:29:35.536Z,91.41
2018-11-13T07:34:38.114Z,91.61
2018-11-13T07:39:40.700Z,92.08
2018-11-13T07:44:43.530Z,92.00
2018-11-13T07:49:46.112Z,92.40
2018-11-13T07:54:48.622Z,91.95
2018-11-13T07:59:51.345Z,91.93
2018-11-13T08:04:54.036Z,91.95
2018-11-13T08:09:56.744Z,91.38
2018-11-13T08:14:59.287Z,91.22
2018-11-13T08:20:02.251Z,91.42
2018-11-13T08:25:05.973Z,91.15
2018-11-13T08:30:10.712Z,90.93
2018-11-13T08:35:13.498Z,90.48
2018-11-13T08:40:17.465Z,90.62
2018-11-13T08:45:20.433Z,90.54
2018-11-13T08:50:22.957Z,89.46
2018-11-13T08:55:25.538Z,89.92
2018-11-13T09:00:28.112Z,90.15
2018-11-13T09:05:30.550Z,89.32
2018-11-13T09:10:33.112Z,89.75
2018-11-13T09:15:35.912Z,89.42
2018-11-13T09:20:38.445Z,88.80
2018-11-13T09:25:41.183Z,88.28
2018-11-13T09:30:43.951Z,87.84
2018-11-13T09:35:46.380Z,87.33
2018-11-13T09:40:49.217Z,86.21
2018-11-13T09:45:51.792Z,86.39
2018-11-13T09:50:54.341Z,85.92
2018-11-13T09:55:57.305Z,85.45
2018-11-13T10:01:00.413Z,85.02
2018-11-13T10:06:02.885Z,84.71
2018-11-13T10:11:05.501Z,84.83
2018-11-13T10:16:08.076Z,84.30
2018-11-13T10:21:10.704Z,84.83
2018-11-13T10:26:13.324Z,84.20
2018-11-13T10:31:16.218Z,84.30
2018-11-13T10:36:18.880Z,84.08
2018-11-13T10:41:21.691Z,83.56
2018-11-13T10:46:24.276Z,83.48
2018-11-13T10:51:26.821Z,84.25
2018-11-13T10:56:29.403Z,84.85
2018-11-13T11:01:37.436Z,83.92
2018-11-13T11:06:40.527Z,83.48
2018-11-13T11:11:43.049Z,83.08
2018-11-13T11:16:45.666Z,81.08
2018-11-13T11:21:48.272Z,80.60
2018-11-13T11:26:51.262Z,80.26
2018-11-13T11:31:53.825Z,80.78
2018-11-13T11:36:56.385Z,80.11
2018-11-13T11:41:59.080Z,78.86
2018-11-13T11:47:01.673Z,79.53
2018-11-13T11:52:04.858Z,78.18
2018-11-13T11:57:07.415Z,76.98
2018-11-13T12:02:09.954Z,74.91
2018-11-13T12:07:12.543Z,73.98
2018-11-13T12:12:15.077Z,73.29
2018-11-13T12:17:17.757Z,72.60
2018-11-13T12:22:20.621Z,70.27
2018-11-13T12:27:23.300Z,71.44
2018-11-13T12:32:26.601Z,70.80
2018-11-13T12:37:29.418Z,70.44
2018-11-13T12:42:32.272Z,69.54
2018-11-13T12:47:35.608Z,68.62
2018-11-13T12:52:38.185Z,68.27
2018-11-13T12:57:41.029Z,67.99
2018-11-13T13:02:43.577Z,68.59
2018-11-13T13:07:46.493Z,67.20
2018-11-13T13:12:49.422Z,67.00
2018-11-13T13:17:52.113Z,66.75
2018-11-13T13:22:54.891Z,66.46
2018-11-13T13:27:57.490Z,64.85
2018-11-13T13:33:00.165Z,64.74
2018-11-13T13:38:03.035Z,66.34
2018-11-13T13:43:06.398Z,63.43
2018-11-13T13:48:09.283Z,64.06
2018-11-13T13:53:12.980Z,63.44
2018-11-13T13:58:16.339Z,62.89
2018-11-13T14:03:19.068Z,61.19
2018-11-13T14:08:21.727Z,61.24
2018-11-13T14:13:24.334Z,61.36
2018-11-13T14:18:26.924Z,61.11
2018-11-13T14:23:29.572Z,62.40
2018-11-13T14:28:32.171Z,61.49
2018-11-13T14:33:34.920Z,60.73
2018-11-13T14:38:37.685Z,60.03
2018-11-13T14:43:40.348Z,60.13
2018-11-13T14:48:42.892Z,61.20
2018-11-13T14:53:45.485Z,60.97
2018-11-13T14:58:48.249Z,60.24
2018-11-13T15:03:51.111Z,61.61
2018-11-13T15:08:54.691Z,60.66
2018-11-13T15:13:59.405Z,60.74
2018-11-13T15:19:02.308Z,62.67
2018-11-13T15:24:05.232Z,61.75
2018-11-13T15:29:07.899Z,62.38
2018-11-13T15:34:11.860Z,64.28
2018-11-13T15:39:15.141Z,67.33
2018-11-13T15:44:17.730Z,68.57
2018-11-13T15:49:20.445Z,68.56
2018-11-13T15:54:23.135Z,69.46
2018-11-13T15:59:25.800Z,68.00
2018-11-13T16:04:28.562Z,67.59
2018-11-13T16:09:31.233Z,66.82
2018-11-13T16:14:34.060Z,66.40
2018-11-13T16:19:36.606Z,66.32
2018-11-13T16:24:40.174Z,66.00
2018-11-13T16:29:42.930Z,66.94
2018-11-13T16:34:45.609Z,66.15
2018-11-13T16:39:51.312Z,66.70
2018-11-13T16:44:54.046Z,66.94
2018-11-13T16:49:56.640Z,67.50
2018-11-13T16:54:59.249Z,69.24
2018-11-13T17:00:02.080Z,68.87
2018-11-13T17:05:13.318Z,69.52
2018-11-13T17:10:19.082Z,70.50
2018-11-13T17:15:22.989Z,69.69
2018-11-13T17:20:25.895Z,70.42
2018-11-13T17:25:30.029Z,71.33
2018-11-13T17:30:34.043Z,71.50
2018-11-13T17:35:36.604Z,71.96
2018-11-13T17:40:39.099Z,72.33
2018-11-13T17:45:41.655Z,72.89
2018-11-13T17:50:44.675Z,73.21
2018-11-13T17:55:47.288Z,73.72
2018-11-13T18:00:50.233Z,72.41
2018-11-13T18:05:52.702Z,72.00
2018-11-13T18:10:56.122Z,72.35
2018-11-13T18:15:59.049Z,73.13
2018-11-13T18:21:01.670Z,74.31
2018-11-13T18:26:04.458Z,74.22
2018-11-13T18:31:07.438Z,74.58
2018-11-13T18:36:10.273Z,74.98
2018-11-13T18:41:12.873Z,74.98
2018-11-13T18:46:15.481Z,75.08
2018-11-13T18:51:18.755Z,75.40
2018-11-13T18:56:21.627Z,75.50
2018-11-13T19:01:24.695Z,75.39
2018-11-13T19:06:27.494Z,76.07
2018-11-13T19:11:30.664Z,76.21
2018-11-13T19:16:33.606Z,76.17
2018-11-13T19:21:36.226Z,76.59
2018-11-13T19:26:39.351Z,76.74
2018-11-13T19:31:41.913Z,76.85
2018-11-13T19:36:44.580Z,77.18
2018-11-13T19:41:47.617Z,77.57
2018-11-13T19:46:50.638Z,77.55
2018-11-13T19:51:53.427Z,78.16
2018-11-13T19:56:56.084Z,78.33
2018-11-13T20:01:58.902Z,79.70
2018-11-13T20:07:01.629Z,79.20
2018-11-13T20:12:04.388Z,79.08
2018-11-13T20:17:07.472Z,79.18
2018-11-13T20:22:10.180Z,79.55
2018-11-13T20:27:12.843Z,79.97
2018-11-13T20:32:15.748Z,80.04
2018-11-13T20:37:18.586Z,80.63
2018-11-13T20:42:21.331Z,80.67
2018-11-13T20:47:23.961Z,80.43
2018-11-13T20:52:29.320Z,80.18
2018-11-13T20:57:31.990Z,80.14
2018-11-13T21:02:36.355Z,80.98
2018-11-13T21:07:39.272Z,81.23
2018-11-13T21:12:42.681Z,81.30
2018-11-13T21:17:45.433Z,81.20
2018-11-13T21:22:48.330Z,81.13
2018-11-13T21:27:54.197Z,81.43
2018-11-13T21:32:57.078Z,82.13
2018-11-13T21:38:00.175Z,82.00
2018-11-13T21:43:03.535Z,81.98
2018-11-13T21:48:06.333Z,81.33
2018-11-13T21:53:09.139Z,81.49
2018-11-13T21:58:11.769Z,81.09
2018-11-13T22:03:17.061Z,81.98
2018-11-13T22:08:19.890Z,82.07
2018-11-13T22:13:22.444Z,82.34
2018-11-13T22:18:25.693Z,82.88
2018-11-13T22:23:28.272Z,83.51
2018-11-13T22:28:32.181Z,84.09
2018-11-13T22:33:34.835Z,83.87
2018-11-13T22:38:37.603Z,83.48
2018-11-13T22:43:41.147Z,83.79
2018-11-13T22:48:43.983Z,83.67
2018-11-13T22:53:46.764Z,83.65
2018-11-13T22:58:49.399Z,83.45
2018-11-13T23:03:52.104Z,83.70
2018-11-13T23:08:54.720Z,84.14
2018-11-13T23:13:57.369Z,84.08
2018-11-13T23:18:59.781Z,84.23
2018-11-13T23:24:03.645Z,83.93
2018-11-13T23:29:06.246Z,84.79
2018-11-13T23:34:08.769Z,84.98
2018-11-13T23:39:11.388Z,85.24
2018-11-13T23:44:14.011Z,84.75
2018-11-13T23:49:16.607Z,85.35
2018-11-13T23:54:19.089Z,84.99
2018-11-13T23:59:21.692Z,85.54
